Arcola, Illinois
Current Conditions -  °F | °C
As of 5:53 AM on Saturday 25 Oct 2014 (Local Time) from KMTO Reporting Station
Clear Clear  
Wind Chill: 57°   Ceiling: Unl
Heat Index: 57°   Visibility: 10mi
Dew Point: 53°   Wind: 6mph
Humidity: 87%   Direction: 260°W
Pressure: 29.97"   Gusts: NA
Location:  39.68°N, 88.31°W
Report Text: KMTO 251053Z AUTO 26005KT 10SM CLR 14/12 A2997 RMK AO2 SLP146 T01390117
Loading
Personal Weather Stations






























Interactive Weather Map
Tropical Storm Tracking
New forecast layout! Learn more

10-Day Weather Forecast

Advertisements
Track Severe Weather on mobile